createdAt,value
2018-11-11T00:00:15.762Z,12.1
2018-11-11T00:03:15.818Z,12.1
2018-11-11T00:06:15.849Z,12.2
2018-11-11T00:09:14.954Z,12.2
2018-11-11T00:12:15.066Z,12.2
2018-11-11T00:15:15.353Z,12.2
2018-11-11T00:18:15.516Z,12.2
2018-11-11T00:21:15.831Z,12.2
2018-11-11T00:24:16.000Z,12.1
2018-11-11T00:27:15.085Z,12.1
2018-11-11T00:30:15.283Z,12.1
2018-11-11T00:33:15.158Z,12.1
2018-11-11T00:36:15.178Z,12.1
2018-11-11T00:39:15.247Z,12.1
2018-11-11T00:42:15.501Z,12.1
2018-11-11T00:45:15.525Z,12.1
2018-11-11T00:48:15.747Z,12.1
2018-11-11T00:51:15.713Z,12.1
2018-11-11T00:54:15.734Z,12.1
2018-11-11T00:57:15.696Z,12.1
2018-11-11T01:00:15.957Z,12.1
2018-11-11T01:03:15.104Z,12.0
2018-11-11T01:06:15.293Z,12.0
2018-11-11T01:09:15.222Z,12.0
2018-11-11T01:12:15.299Z,12.0
2018-11-11T01:15:15.502Z,12.0
2018-11-11T01:18:15.718Z,12.0
2018-11-11T01:21:14.898Z,12.0
2018-11-11T01:24:14.975Z,12.0
2018-11-11T01:27:15.229Z,12.0
2018-11-11T01:30:15.311Z,12.0
2018-11-11T01:33:15.633Z,11.9
2018-11-11T01:36:15.650Z,11.9
2018-11-11T01:39:15.879Z,11.8
2018-11-11T01:42:15.169Z,11.8
2018-11-11T01:45:15.326Z,11.8
2018-11-11T01:48:15.372Z,11.8
2018-11-11T01:51:15.284Z,11.7
2018-11-11T01:54:15.299Z,11.7
2018-11-11T01:57:15.429Z,11.7
2018-11-11T02:00:15.583Z,11.7
2018-11-11T02:03:15.606Z,11.7
2018-11-11T02:06:15.616Z,11.7
2018-11-11T02:09:15.678Z,11.7
2018-11-11T02:12:15.981Z,11.7
2018-11-11T02:15:15.215Z,11.6
2018-11-11T02:18:15.351Z,11.6
2018-11-11T02:21:15.533Z,11.6
2018-11-11T02:24:15.851Z,11.6
2018-11-11T02:27:15.007Z,11.6
2018-11-11T02:30:15.196Z,11.6
2018-11-11T02:33:15.297Z,11.7
2018-11-11T02:36:15.335Z,11.6
2018-11-11T02:39:15.264Z,11.6
2018-11-11T02:42:15.261Z,11.6
2018-11-11T02:45:15.182Z,11.6
2018-11-11T02:48:15.309Z,11.6
2018-11-11T02:51:15.204Z,11.6
2018-11-11T02:54:15.292Z,11.6
2018-11-11T02:57:15.318Z,11.6
2018-11-11T03:00:15.519Z,11.6
2018-11-11T03:03:15.643Z,11.6
2018-11-11T03:06:15.666Z,11.7
2018-11-11T03:09:15.844Z,11.6
2018-11-11T03:12:15.180Z,11.6
2018-11-11T03:15:15.175Z,11.7
2018-11-11T03:18:15.414Z,11.7
2018-11-11T03:21:15.228Z,11.7
2018-11-11T03:24:15.287Z,11.7
2018-11-11T03:27:15.224Z,11.7
2018-11-11T03:30:15.181Z,11.7
2018-11-11T03:33:15.261Z,11.7
2018-11-11T03:36:15.250Z,11.7
2018-11-11T03:39:15.359Z,11.7
2018-11-11T03:42:15.571Z,11.7
2018-11-11T03:45:15.728Z,11.8
2018-11-11T03:48:15.963Z,11.7
2018-11-11T03:51:14.976Z,11.8
2018-11-11T03:54:15.181Z,11.8
2018-11-11T03:57:15.501Z,11.8
2018-11-11T04:00:15.552Z,11.8
2018-11-11T04:03:15.536Z,11.8
2018-11-11T04:06:15.674Z,11.8
2018-11-11T04:09:15.777Z,11.8
2018-11-11T04:12:15.941Z,11.8
2018-11-11T04:15:15.012Z,11.8
2018-11-11T04:18:15.255Z,11.9
2018-11-11T04:21:15.018Z,11.9
2018-11-11T04:24:15.211Z,11.8
2018-11-11T04:27:15.324Z,11.8
2018-11-11T04:30:15.426Z,11.8
2018-11-11T04:33:15.515Z,11.8
2018-11-11T04:36:15.517Z,11.8
2018-11-11T04:39:15.760Z,11.8
2018-11-11T04:42:15.857Z,11.8
2018-11-11T04:45:15.904Z,11.8
2018-11-11T04:48:15.114Z,11.8
2018-11-11T04:51:14.960Z,11.8
2018-11-11T04:54:15.875Z,11.8
2018-11-11T04:57:15.774Z,11.8
2018-11-11T05:00:15.959Z,11.8
2018-11-11T05:03:15.246Z,11.9
2018-11-11T05:06:15.050Z,11.9
2018-11-11T05:09:15.254Z,11.9
2018-11-11T05:12:15.278Z,11.8
2018-11-11T05:15:15.387Z,11.8
2018-11-11T05:18:15.580Z,11.8
2018-11-11T05:21:15.622Z,11.8
2018-11-11T05:24:15.559Z,11.8
2018-11-11T05:27:15.003Z,11.8
2018-11-11T05:30:15.231Z,11.8
2018-11-11T05:33:15.239Z,11.8
2018-11-11T05:36:15.202Z,11.8
2018-11-11T05:39:15.175Z,11.7
2018-11-11T05:42:15.240Z,11.7
2018-11-11T05:45:15.338Z,11.7
2018-11-11T05:48:15.675Z,11.7
2018-11-11T05:51:15.632Z,11.6
2018-11-11T05:54:15.695Z,11.6
2018-11-11T05:57:15.812Z,11.6
2018-11-11T06:00:16.235Z,11.6
2018-11-11T06:03:15.383Z,11.6
2018-11-11T06:06:15.469Z,11.5
2018-11-11T06:09:15.521Z,11.5
2018-11-11T06:12:15.569Z,11.5
2018-11-11T06:15:15.748Z,11.5
2018-11-11T06:18:15.865Z,11.4
2018-11-11T06:21:14.941Z,11.4
2018-11-11T06:24:14.983Z,11.4
2018-11-11T06:27:15.139Z,11.4
2018-11-11T06:30:15.669Z,11.4
2018-11-11T06:33:15.845Z,11.4
2018-11-11T06:36:15.836Z,11.4
2018-11-11T06:39:15.931Z,11.4
2018-11-11T06:42:15.914Z,11.4
2018-11-11T06:45:15.038Z,11.4
2018-11-11T06:48:15.393Z,11.3
2018-11-11T06:51:15.391Z,11.3
2018-11-11T06:54:15.656Z,11.4
2018-11-11T06:57:15.856Z,11.3
2018-11-11T07:00:15.753Z,11.4
2018-11-11T07:03:15.013Z,11.3
2018-11-11T07:06:15.686Z,11.3
2018-11-11T07:09:15.487Z,11.4
2018-11-11T07:12:15.845Z,11.4
2018-11-11T07:15:14.997Z,11.4
2018-11-11T07:18:15.508Z,11.5
2018-11-11T07:21:15.819Z,11.5
2018-11-11T07:24:15.553Z,11.5
2018-11-11T07:27:15.761Z,11.5
2018-11-11T07:30:16.006Z,11.5
2018-11-11T07:33:15.606Z,11.5
2018-11-11T07:36:15.613Z,11.5
2018-11-11T07:39:15.759Z,11.5
2018-11-11T07:42:15.332Z,11.6
2018-11-11T07:45:15.236Z,11.6
2018-11-11T07:48:15.547Z,11.7
2018-11-11T07:51:15.123Z,11.8
2018-11-11T07:54:15.169Z,11.9
2018-11-11T07:57:15.687Z,11.9
2018-11-11T08:00:15.558Z,12.0
2018-11-11T08:03:15.787Z,12.2
2018-11-11T08:06:15.376Z,12.3
2018-11-11T08:09:15.146Z,12.5
2018-11-11T08:12:15.199Z,12.6
2018-11-11T08:15:15.319Z,12.8
2018-11-11T08:18:15.657Z,13.0
2018-11-11T08:21:15.848Z,13.4
2018-11-11T08:24:15.903Z,14.1
2018-11-11T08:27:15.186Z,14.6
2018-11-11T08:30:15.115Z,15.1
2018-11-11T08:33:15.175Z,15.7
2018-11-11T08:36:15.213Z,16.2
2018-11-11T08:39:15.597Z,16.7
2018-11-11T08:42:15.530Z,17.1
2018-11-11T08:45:15.653Z,17.6
2018-11-11T08:48:15.767Z,18.1
2018-11-11T08:51:15.308Z,18.8
2018-11-11T08:54:15.351Z,19.0
2018-11-11T08:57:15.447Z,19.0
2018-11-11T09:00:15.754Z,19.2
2018-11-11T09:03:15.920Z,19.3
2018-11-11T09:06:15.856Z,19.4
2018-11-11T09:09:15.185Z,19.0
2018-11-11T09:12:15.427Z,19.2
2018-11-11T09:15:15.879Z,19.5
2018-11-11T09:18:15.119Z,19.5
2018-11-11T09:21:15.534Z,20.0
2018-11-11T09:24:15.016Z,19.9
2018-11-11T09:27:15.230Z,20.1
2018-11-11T09:30:15.511Z,19.9
2018-11-11T09:33:15.510Z,18.6
2018-11-11T09:36:15.591Z,17.9
2018-11-11T09:39:15.774Z,18.2
2018-11-11T09:42:15.246Z,18.6
2018-11-11T09:45:15.611Z,18.7
2018-11-11T09:48:15.698Z,18.9
2018-11-11T09:51:15.917Z,19.2
2018-11-11T09:54:16.060Z,19.2
2018-11-11T09:57:15.894Z,19.6
2018-11-11T10:00:15.276Z,20.0
2018-11-11T10:03:15.749Z,20.5
2018-11-11T10:06:15.913Z,20.7
2018-11-11T10:09:16.051Z,20.9
2018-11-11T10:12:15.447Z,21.3
2018-11-11T10:15:15.377Z,21.5
2018-11-11T10:18:15.687Z,21.7
2018-11-11T10:21:15.173Z,21.6
2018-11-11T10:24:15.712Z,20.8
2018-11-11T10:27:15.503Z,19.9
2018-11-11T10:30:15.841Z,19.5
2018-11-11T10:33:15.086Z,19.3
2018-11-11T10:36:15.375Z,19.2
2018-11-11T10:39:15.775Z,19.2
2018-11-11T10:42:15.744Z,19.7
2018-11-11T10:45:15.136Z,20.2
2018-11-11T10:48:15.913Z,20.4
2018-11-11T10:51:15.849Z,20.5
2018-11-11T10:54:15.216Z,20.1
2018-11-11T10:57:15.867Z,19.5
2018-11-11T11:00:15.310Z,19.2
2018-11-11T11:03:15.912Z,18.8
2018-11-11T11:06:15.154Z,18.3
2018-11-11T11:09:16.004Z,17.9
2018-11-11T11:12:15.462Z,17.6
2018-11-11T11:15:15.765Z,17.1
2018-11-11T11:18:15.152Z,16.9
2018-11-11T11:21:15.218Z,16.7
2018-11-11T11:24:15.277Z,16.6
2018-11-11T11:27:15.708Z,16.3
2018-11-11T11:30:15.055Z,16.2
2018-11-11T11:33:15.247Z,16.1
2018-11-11T11:36:15.579Z,15.9
2018-11-11T11:39:15.053Z,15.8
2018-11-11T11:42:15.045Z,15.8
2018-11-11T11:45:15.282Z,15.8
2018-11-11T11:48:15.657Z,15.8
2018-11-11T11:51:16.014Z,15.9
2018-11-11T11:54:15.266Z,16.1
2018-11-11T11:57:15.318Z,16.1
2018-11-11T12:00:15.604Z,16.1
2018-11-11T12:03:15.062Z,16.2
2018-11-11T12:06:15.629Z,16.3
2018-11-11T12:09:15.262Z,16.5
2018-11-11T12:12:15.556Z,16.6
2018-11-11T12:15:16.023Z,16.5
2018-11-11T12:18:15.472Z,16.5
2018-11-11T12:21:15.875Z,16.4
2018-11-11T12:24:15.340Z,16.4
2018-11-11T12:27:15.428Z,16.3
2018-11-11T12:30:15.666Z,16.2
2018-11-11T12:33:15.558Z,16.2
2018-11-11T12:36:16.056Z,16.1
2018-11-11T12:39:15.620Z,16.0
2018-11-11T12:42:15.436Z,15.9
2018-11-11T12:45:15.443Z,15.8
2018-11-11T12:48:15.529Z,15.9
2018-11-11T12:51:15.734Z,15.9
2018-11-11T12:54:15.222Z,16.0
2018-11-11T12:57:15.427Z,16.0
2018-11-11T13:00:15.056Z,16.0
2018-11-11T13:03:15.378Z,16.0
2018-11-11T13:06:15.998Z,16.0
2018-11-11T13:09:15.718Z,15.9
2018-11-11T13:12:15.387Z,15.9
2018-11-11T13:15:15.605Z,16.0
2018-11-11T13:18:15.899Z,15.9
2018-11-11T13:21:15.035Z,16.0
2018-11-11T13:24:15.540Z,16.0
2018-11-11T13:27:15.780Z,16.0
2018-11-11T13:30:15.283Z,16.1
2018-11-11T13:33:15.687Z,16.1
2018-11-11T13:36:15.022Z,16.3
2018-11-11T13:39:15.209Z,16.6
2018-11-11T13:42:15.018Z,17.1
2018-11-11T13:45:15.587Z,17.5
2018-11-11T13:48:15.863Z,17.8
2018-11-11T13:51:15.286Z,18.0
2018-11-11T13:54:15.951Z,17.9
2018-11-11T13:57:15.488Z,18.0
2018-11-11T14:00:16.024Z,18.0
2018-11-11T14:03:15.813Z,17.9
2018-11-11T14:06:15.260Z,17.6
2018-11-11T14:09:15.695Z,17.3
2018-11-11T14:12:15.493Z,17.1
2018-11-11T14:15:15.983Z,16.9
2018-11-11T14:18:15.858Z,16.7
2018-11-11T14:21:15.084Z,16.6
2018-11-11T14:24:15.348Z,16.6
2018-11-11T14:27:15.966Z,16.5
2018-11-11T14:30:15.456Z,16.5
2018-11-11T14:33:15.785Z,16.5
2018-11-11T14:36:15.308Z,16.6
2018-11-11T14:39:15.942Z,16.6
2018-11-11T14:42:15.416Z,16.6
2018-11-11T14:45:15.843Z,16.6
2018-11-11T14:48:15.588Z,16.5
2018-11-11T14:51:16.223Z,16.3
2018-11-11T14:54:15.710Z,16.2
2018-11-11T14:57:15.064Z,16.1
2018-11-11T15:00:15.470Z,15.9
2018-11-11T15:03:15.464Z,15.9
2018-11-11T15:06:15.850Z,15.9
2018-11-11T15:09:15.320Z,15.9
2018-11-11T15:12:15.451Z,15.9
2018-11-11T15:15:15.519Z,15.9
2018-11-11T15:18:15.412Z,15.9
2018-11-11T15:21:15.611Z,15.9
2018-11-11T15:24:15.832Z,15.8
2018-11-11T15:27:15.375Z,15.7
2018-11-11T15:30:15.799Z,15.6
2018-11-11T15:33:15.897Z,15.6
2018-11-11T15:36:15.533Z,15.5
2018-11-11T15:39:15.731Z,15.4
2018-11-11T15:42:15.191Z,15.3
2018-11-11T15:45:16.037Z,15.3
2018-11-11T15:48:15.579Z,15.2
2018-11-11T15:51:15.823Z,15.1
2018-11-11T15:54:15.104Z,15.1
2018-11-11T15:57:15.446Z,15.0
2018-11-11T16:00:15.635Z,15.0
2018-11-11T16:03:15.373Z,14.9
2018-11-11T16:06:15.496Z,14.8
2018-11-11T16:09:14.980Z,14.8
2018-11-11T16:12:15.308Z,14.7
2018-11-11T16:15:15.338Z,14.7
2018-11-11T16:18:15.128Z,14.7
2018-11-11T16:21:15.479Z,14.6
2018-11-11T16:24:15.636Z,14.6
2018-11-11T16:27:15.827Z,14.6
2018-11-11T16:30:15.753Z,14.5
2018-11-11T16:33:15.072Z,14.5
2018-11-11T16:36:15.453Z,14.6
2018-11-11T16:39:15.151Z,14.6
2018-11-11T16:42:15.835Z,14.5
2018-11-11T16:45:14.972Z,14.5
2018-11-11T16:48:15.238Z,14.5
2018-11-11T16:51:15.391Z,14.4
2018-11-11T16:54:15.958Z,14.4
2018-11-11T16:57:15.171Z,14.4
2018-11-11T17:00:15.328Z,14.3
2018-11-11T17:03:15.606Z,14.3
2018-11-11T17:06:15.650Z,14.3
2018-11-11T17:09:15.712Z,14.3
2018-11-11T17:12:15.815Z,14.3
2018-11-11T17:15:14.956Z,14.2
2018-11-11T17:18:15.603Z,14.2
2018-11-11T17:21:15.563Z,14.2
2018-11-11T17:24:15.526Z,14.2
2018-11-11T17:27:15.848Z,14.1
2018-11-11T17:30:16.107Z,14.1
2018-11-11T17:33:15.084Z,14.1
2018-11-11T17:36:15.298Z,14.1
2018-11-11T17:39:15.541Z,14.1
2018-11-11T17:42:15.953Z,14.0
2018-11-11T17:45:15.485Z,14.0
2018-11-11T17:48:15.438Z,14.0
2018-11-11T17:51:20.040Z,13.9
2018-11-11T17:54:15.031Z,14.0
2018-11-11T17:57:15.297Z,14.0
2018-11-11T18:00:15.490Z,13.9
2018-11-11T18:03:15.962Z,13.9
2018-11-11T18:06:15.389Z,14.0
2018-11-11T18:09:15.496Z,13.9
2018-11-11T18:12:15.488Z,13.9
2018-11-11T18:15:15.674Z,14.0
2018-11-11T18:18:15.202Z,14.0
2018-11-11T18:21:15.304Z,14.0
2018-11-11T18:24:15.434Z,14.0
2018-11-11T18:27:15.905Z,14.0
2018-11-11T18:30:15.126Z,14.0
2018-11-11T18:33:15.201Z,14.0
2018-11-11T18:36:15.417Z,14.0
2018-11-11T18:39:15.728Z,13.9
2018-11-11T18:42:15.968Z,14.0
2018-11-11T18:45:15.401Z,13.9
2018-11-11T18:48:15.211Z,14.0
2018-11-11T18:51:15.289Z,13.9
2018-11-11T18:54:15.615Z,13.9
2018-11-11T18:57:16.113Z,13.9
2018-11-11T19:00:15.712Z,13.9
2018-11-11T19:03:15.346Z,13.9
2018-11-11T19:06:15.487Z,13.9
2018-11-11T19:09:15.962Z,13.8
2018-11-11T19:12:15.190Z,13.9
2018-11-11T19:15:15.472Z,13.8
2018-11-11T19:18:15.843Z,13.9
2018-11-11T19:21:16.021Z,13.9
2018-11-11T19:24:15.481Z,14.0
2018-11-11T19:27:15.291Z,14.0
2018-11-11T19:30:15.750Z,14.0
2018-11-11T19:33:15.474Z,14.0
2018-11-11T19:36:15.978Z,14.0
2018-11-11T19:39:14.990Z,14.0
2018-11-11T19:42:15.376Z,14.1
2018-11-11T19:45:15.441Z,14.0
2018-11-11T19:48:15.557Z,14.1
2018-11-11T19:51:15.854Z,14.0
2018-11-11T19:54:15.434Z,14.0
2018-11-11T19:57:15.633Z,14.0
2018-11-11T20:00:15.050Z,14.0
2018-11-11T20:03:15.677Z,14.0
2018-11-11T20:06:15.753Z,14.0
2018-11-11T20:09:15.883Z,14.0
2018-11-11T20:12:15.296Z,14.0
2018-11-11T20:15:15.357Z,13.9
2018-11-11T20:18:15.851Z,13.9
2018-11-11T20:21:15.959Z,13.8
2018-11-11T20:24:15.282Z,13.8
2018-11-11T20:27:15.932Z,13.8
2018-11-11T20:30:15.245Z,13.7
2018-11-11T20:33:15.700Z,13.7
2018-11-11T20:36:15.830Z,13.7
2018-11-11T20:39:15.800Z,13.7
2018-11-11T20:42:15.919Z,13.7
2018-11-11T20:45:15.885Z,13.7
2018-11-11T20:48:15.396Z,13.7
2018-11-11T20:51:15.617Z,13.8
2018-11-11T20:54:15.695Z,13.8
2018-11-11T20:57:15.984Z,13.8
2018-11-11T21:00:15.061Z,13.9
2018-11-11T21:03:15.752Z,14.0
2018-11-11T21:06:15.858Z,14.0
2018-11-11T21:09:15.231Z,14.0
2018-11-11T21:12:15.415Z,14.1
2018-11-11T21:15:15.637Z,14.1
2018-11-11T21:18:15.164Z,14.1
2018-11-11T21:21:15.192Z,14.1
2018-11-11T21:24:15.427Z,14.1
2018-11-11T21:27:15.328Z,14.1
2018-11-11T21:30:15.391Z,14.2
2018-11-11T21:33:15.877Z,14.3
2018-11-11T21:36:16.012Z,14.3
2018-11-11T21:39:15.075Z,14.3
2018-11-11T21:42:15.370Z,14.4
2018-11-11T21:45:15.688Z,14.4
2018-11-11T21:48:15.733Z,14.4
2018-11-11T21:51:15.863Z,14.5
2018-11-11T21:54:15.889Z,14.5
2018-11-11T21:57:15.177Z,14.5
2018-11-11T22:00:15.230Z,14.5
2018-11-11T22:03:15.287Z,14.5
2018-11-11T22:06:15.663Z,14.5
2018-11-11T22:09:15.725Z,14.4
2018-11-11T22:12:15.465Z,14.3
2018-11-11T22:15:15.710Z,14.3
2018-11-11T22:18:15.172Z,14.3
2018-11-11T22:21:15.589Z,14.3
2018-11-11T22:24:15.667Z,14.3
2018-11-11T22:27:15.783Z,14.4
2018-11-11T22:30:15.395Z,14.4
2018-11-11T22:33:15.408Z,14.4
2018-11-11T22:36:15.437Z,14.4
2018-11-11T22:39:15.553Z,14.4
2018-11-11T22:42:15.607Z,14.3
2018-11-11T22:45:15.079Z,14.4
2018-11-11T22:48:15.366Z,14.3
2018-11-11T22:51:15.392Z,14.3
2018-11-11T22:54:15.393Z,14.3
2018-11-11T22:57:15.335Z,14.3
2018-11-11T23:00:15.456Z,14.4
2018-11-11T23:03:15.250Z,14.4
2018-11-11T23:06:15.413Z,14.4
2018-11-11T23:09:15.596Z,14.4
2018-11-11T23:12:16.067Z,14.4
2018-11-11T23:15:15.392Z,14.4
2018-11-11T23:18:15.809Z,14.5
2018-11-11T23:21:14.992Z,14.5
2018-11-11T23:24:15.128Z,14.5
2018-11-11T23:27:15.298Z,14.4
2018-11-11T23:30:15.831Z,14.4
2018-11-11T23:33:15.864Z,14.3
2018-11-11T23:36:16.067Z,14.2
2018-11-11T23:39:15.072Z,14.2
2018-11-11T23:42:15.242Z,14.1
2018-11-11T23:45:15.498Z,14.0
2018-11-11T23:48:15.620Z,13.9
2018-11-11T23:51:15.604Z,13.8
2018-11-11T23:54:15.480Z,13.8
2018-11-11T23:57:15.406Z,13.8
